Time;durP1;ratioP1;P1;durP2;ratioP2;P2;SDS_P1;SDS_P2;PMS_P1;PMS_P2;Temp;Humidity;BMP_temperature;BMP_pressure;BME280_temperature;BME280_humidity;BME280_pressure;Samples;Min_cycle;Max_cycle;Signal;HPM_P1;HPM_P2
2021/11/18 20:15:45;;;;;;;;;;;;;;;;;;108875;1300;9078;-77
2021/11/18 20:18:14;;;;;;;;;;;;;;;;;;110199;1279;7972;-78
2021/11/18 20:20:44;;;;;;;;;;;;;;;;;;110266;1277;8925;-79
2021/11/18 20:24:26;;;;;;;;;;;;;;;;;;109381;1297;9526;-76
2021/11/18 20:26:59;;;;;;;;;;;;;;;;;;110435;1280;9707;-75
2021/11/18 20:29:31;;;;;;;;;;;;;;;;;;110425;1279;8008;-77
2021/11/18 20:32:03;;;;;;;;;;;;;;;;;;110695;1277;9694;-76
2021/11/18 20:37:33;;;;;;;;;;;;;;;;;;110917;1271;525304;-76
2021/11/18 20:40:05;;;;;;;;;;;;;;;;;;111982;1268;9697;-76
2021/11/18 20:42:33;;;;;;;;;;;;;;;;;;111974;1267;8491;-76
2021/11/18 20:45:03;;;;;;;;;;;;;;;;;;111965;1271;8044;-77
2021/11/18 20:47:31;;;;;;;;;;;;;;;;;;111778;1270;9682;-77
2021/11/18 20:50:00;;;;;;;;;;;;;;;;;;111937;1270;8957;-77
2021/11/18 20:52:36;;;;;;;;;;;;;;;;;;111814;1267;8046;-78
2021/11/18 20:55:07;;;;;;;;;;;;;;;;;;111921;1266;9704;-77
2021/11/18 20:57:38;;;;;;;;;;;;;;;;;;111931;1271;8391;-76
2021/11/18 21:00:13;;;;;;;;;;;;;;;;;;112162;1264;8761;-77
2021/11/18 21:02:43;;;;;;;;;;;;;;;;;;112213;1262;9035;-77
2021/11/18 21:05:13;;;;;;;;;;;;;;;;;;112198;1262;8552;-77
2021/11/18 21:07:44;;;;;;;;;;;;;;;;;;112227;1262;8358;-76
2021/11/18 21:10:20;;;;;;;;;;;;;;;;;;112221;1263;8091;-78
2021/11/18 21:12:50;;;;;;;;;;;;;;;;;;112170;1264;9678;-79
2021/11/18 21:15:21;;;;;;;;;;;;;;;;;;112121;1264;8025;-76
2021/11/18 21:17:51;;;;;;;;;;;;;;;;;;112157;1264;8948;-78
2021/11/18 21:20:21;;;;;;;;;;;;;;;;;;112132;1262;8059;-78
2021/11/18 21:22:50;;;;;;;;;;;;;;;;;;112179;1263;8960;-77
2021/11/18 21:25:21;;;;;;;;;;;;;;;;;;112122;1262;9699;-79
2021/11/18 21:27:59;;;;;;;;;;;;;;;;;;112211;1262;8858;-79
2021/11/18 21:30:32;;;;;;;;;;;;;;;;;;112188;1263;8762;-78
2021/11/18 21:33:01;;;;;;;;;;;;;;;;;;112197;1263;8804;-79
2021/11/18 21:35:30;;;;;;;;;;;;;;;;;;112121;1263;9678;-77
2021/11/18 21:38:12;;;;;;;;;;;;;;;;;;112109;1266;8210;-78
2021/11/18 21:40:51;;;;;;;;;;;;;;;;;;112150;1267;8772;-78
2021/11/18 21:43:26;;;;;;;;;;;;;;;;;;112176;1267;8922;-79
2021/11/18 21:45:59;;;;;;;;;;;;;;;;;;112208;1264;8879;-78
2021/11/18 21:48:38;;;;;;;;;;;;;;;;;;112109;1265;8766;-78
2021/11/18 21:51:29;;;;;;;;;;;;;;;;;;112201;1266;8922;-79
2021/11/18 21:54:06;;;;;;;;;;;;;;;;;;112203;1266;8855;-77
2021/11/18 21:56:36;;;;;;;;;;;;;;;;;;112210;1266;9720;-78
2021/11/18 21:59:09;;;;;;;;;;;;;;;;;;112141;1264;9364;-78
2021/11/18 22:01:46;;;;;;;;;;;;;;;;;;112192;1266;8002;-80
2021/11/18 22:04:21;;;;;;;;;;;;;;;;;;112174;1262;7962;-80
2021/11/18 22:06:51;;;;;;;;;;;;;;;;;;112104;1267;9781;-79
2021/11/18 22:09:22;;;;;;;;;;;;;;;;;;112153;1266;8645;-79
2021/11/18 22:11:51;;;;;;;;;;;;;;;;;;112138;1266;8924;-77
2021/11/18 22:14:26;;;;;;;;;;;;;;;;;;112160;1262;8778;-78
2021/11/18 22:16:56;;;;;;;;;;;;;;;;;;112177;1266;8790;-78
2021/11/18 22:19:27;;;;;;;;;;;;;;;;;;112170;1265;9671;-76
2021/11/18 22:21:57;;;;;;;;;;;;;;;;;;112170;1263;9729;-77
2021/11/18 22:24:29;;;;;;;;;;;;;;;;;;112122;1265;9222;-77
2021/11/18 22:26:58;;;;;;;;;;;;;;;;;;112109;1266;9678;-78
2021/11/18 22:29:35;;;;;;;;;;;;;;;;;;112110;1265;8774;-77
2021/11/18 22:32:09;;;;;;;;;;;;;;;;;;112015;1266;8770;-77
2021/11/18 22:34:44;;;;;;;;;;;;;;;;;;112043;1266;8793;-78
2021/11/18 22:37:17;;;;;;;;;;;;;;;;;;112103;1267;7991;-77
2021/11/18 22:39:54;;;;;;;;;;;;;;;;;;112141;1265;7965;-78
2021/11/18 22:42:26;;;;;;;;;;;;;;;;;;112137;1267;8630;-79
2021/11/18 22:45:00;;;;;;;;;;;;;;;;;;112159;1264;8000;-80
2021/11/18 22:47:29;;;;;;;;;;;;;;;;;;112212;1262;7988;-79
2021/11/18 22:50:03;;;;;;;;;;;;;;;;;;112174;1264;8789;-78
2021/11/18 22:52:34;;;;;;;;;;;;;;;;;;112105;1264;8055;-77
2021/11/18 22:55:14;;;;;;;;;;;;;;;;;;;;;
2021/11/18 22:57:45;;;;;;;;;;;;;;;;;;112173;1263;8770;-79
2021/11/18 23:00:15;;;;;;;;;;;;;;;;;;112166;1265;9723;-77
2021/11/18 23:02:43;;;;;;;;;;;;;;;;;;112198;1265;9685;-77
2021/11/18 23:05:24;;;;;;;;;;;;;;;;;;112185;1261;8021;-77
2021/11/18 23:07:52;;;;;;;;;;;;;;;;;;112133;1267;8825;-78
2021/11/18 23:10:22;;;;;;;;;;;;;;;;;;112184;1263;9674;-76
2021/11/18 23:12:56;;;;;;;;;;;;;;;;;;112119;1267;7969;-77
2021/11/18 23:15:25;;;;;;;;;;;;;;;;;;112131;1265;9679;-76
2021/11/18 23:17:59;;;;;;;;;;;;;;;;;;112157;1265;7948;-78
2021/11/18 23:20:31;;;;;;;;;;;;;;;;;;112201;1266;8958;-80
2021/11/18 23:23:02;;;;;;;;;;;;;;;;;;112189;1266;9764;-76
2021/11/18 23:25:34;;;;;;;;;;;;;;;;;;112202;1263;8002;-80
2021/11/18 23:28:04;;;;;;;;;;;;;;;;;;112187;1265;8510;-79
2021/11/18 23:30:42;;;;;;;;;;;;;;;;;;112166;1262;8366;-79
2021/11/18 23:33:24;;;;;;;;;;;;;;;;;;112185;1263;8763;-76
2021/11/18 23:36:01;;;;;;;;;;;;;;;;;;112166;1263;9028;-80
2021/11/18 23:38:39;;;;;;;;;;;;;;;;;;112172;1263;9713;-79
2021/11/18 23:41:14;;;;;;;;;;;;;;;;;;112185;1263;8760;-77
2021/11/18 23:43:45;;;;;;;;;;;;;;;;;;112201;1262;9044;-76
2021/11/18 23:46:15;;;;;;;;;;;;;;;;;;112188;1263;9674;-78
2021/11/18 23:48:48;;;;;;;;;;;;;;;;;;112125;1262;9447;-74
2021/11/18 23:51:19;;;;;;;;;;;;;;;;;;112166;1265;7971;-77
2021/11/18 23:54:08;;;;;;;;;;;;;;;;;;112120;1262;8363;-78
2021/11/18 23:56:53;;;;;;;;;;;;;;;;;;112106;1267;9721;-78
2021/11/18 23:59:26;;;;;;;;;;;;;;;;;;112134;1267;9730;-77
